createdAt,value
2023-05-10T00:00:24.321Z,54.16
2023-05-10T00:03:20.834Z,54.46
2023-05-10T00:05:59.354Z,54.15
2023-05-10T00:09:07.518Z,54.31
2023-05-10T00:11:36.306Z,54.37
2023-05-10T00:14:13.944Z,54.41
2023-05-10T00:17:15.886Z,55.00
2023-05-10T00:19:49.438Z,54.56
2023-05-10T00:22:38.442Z,54.42
2023-05-10T00:25:22.000Z,54.40
2023-05-10T00:27:50.908Z,54.55
2023-05-10T00:30:36.713Z,54.76
2023-05-10T00:33:23.788Z,54.57
2023-05-10T00:36:08.718Z,54.66
2023-05-10T00:38:57.365Z,54.95
2023-05-10T00:41:54.158Z,54.71
2023-05-10T00:44:32.160Z,55.23
2023-05-10T00:47:17.796Z,55.24
2023-05-10T00:50:29.947Z,54.99
2023-05-10T00:53:28.379Z,55.19
2023-05-10T00:56:01.483Z,55.09
2023-05-10T00:58:33.104Z,54.98
2023-05-10T01:01:02.995Z,55.11
2023-05-10T01:03:32.143Z,55.06
2023-05-10T01:06:17.225Z,55.16
2023-05-10T01:08:45.738Z,55.18
2023-05-10T01:11:48.232Z,55.16
2023-05-10T01:14:49.084Z,55.47
2023-05-10T01:17:23.998Z,55.34
2023-05-10T01:20:37.368Z,55.64
2023-05-10T01:24:00.198Z,55.41
2023-05-10T01:27:09.862Z,55.93
2023-05-10T01:30:15.503Z,56.20
2023-05-10T01:33:19.634Z,56.39
2023-05-10T01:36:26.150Z,56.30
2023-05-10T01:39:21.595Z,56.60
2023-05-10T01:42:32.685Z,56.51
2023-05-10T01:45:25.519Z,56.64
2023-05-10T01:48:34.637Z,56.59
2023-05-10T01:51:53.099Z,57.33
2023-05-10T01:54:46.972Z,57.46
2023-05-10T01:57:40.885Z,57.33
2023-05-10T02:00:30.215Z,57.48
2023-05-10T02:03:20.434Z,57.89
2023-05-10T02:06:27.939Z,58.15
2023-05-10T02:09:17.355Z,58.01
2023-05-10T02:12:04.429Z,58.09
2023-05-10T02:15:27.052Z,58.02
2023-05-10T02:18:06.877Z,58.10
2023-05-10T02:21:04.956Z,58.52
2023-05-10T02:24:07.975Z,58.57
2023-05-10T02:26:59.201Z,58.71
2023-05-10T02:29:40.920Z,58.72
2023-05-10T02:32:48.861Z,58.88
2023-05-10T02:35:34.852Z,59.01
2023-05-10T02:38:54.747Z,58.97
2023-05-10T02:41:34.416Z,59.40
2023-05-10T02:44:13.072Z,59.31
2023-05-10T02:47:02.024Z,59.68
2023-05-10T02:50:04.113Z,59.67
2023-05-10T02:53:18.024Z,60.04
2023-05-10T02:56:27.080Z,59.71
2023-05-10T02:59:46.171Z,60.17
2023-05-10T03:02:31.616Z,60.27
2023-05-10T03:05:11.750Z,60.28
2023-05-10T03:08:00.643Z,60.87
2023-05-10T03:11:29.167Z,60.47
2023-05-10T03:14:34.233Z,60.78
2023-05-10T03:17:46.245Z,60.98
2023-05-10T03:20:49.789Z,61.10
2023-05-10T03:23:49.661Z,61.64
2023-05-10T03:26:58.704Z,61.81
2023-05-10T03:29:42.733Z,62.07
2023-05-10T03:33:12.876Z,62.06
2023-05-10T03:36:13.831Z,62.24
2023-05-10T03:39:00.698Z,62.36
2023-05-10T03:41:29.923Z,62.77
2023-05-10T03:44:01.311Z,62.66
2023-05-10T03:46:56.607Z,62.90
2023-05-10T03:49:33.466Z,62.98
2023-05-10T03:52:37.144Z,63.12
2023-05-10T03:55:56.660Z,63.17
2023-05-10T03:59:10.262Z,63.15
2023-05-10T04:01:50.272Z,63.45
2023-05-10T04:05:08.660Z,63.46
2023-05-10T04:08:00.626Z,63.65
2023-05-10T04:10:58.873Z,63.60
2023-05-10T04:13:58.899Z,63.74
2023-05-10T04:16:27.388Z,63.60
2023-05-10T04:19:05.242Z,63.83
2023-05-10T04:21:33.631Z,63.59
2023-05-10T04:24:38.736Z,63.87
2023-05-10T04:27:07.151Z,63.71
2023-05-10T04:29:35.675Z,63.77
2023-05-10T04:32:21.564Z,64.02
2023-05-10T04:34:59.401Z,63.63
2023-05-10T04:37:28.320Z,63.60
2023-05-10T04:40:01.237Z,63.90
2023-05-10T04:42:29.919Z,63.79
2023-05-10T04:45:04.994Z,63.64
2023-05-10T04:48:25.384Z,63.59
2023-05-10T04:51:22.621Z,63.35
2023-05-10T04:54:05.105Z,63.12
2023-05-10T04:56:45.586Z,62.70
2023-05-10T04:59:45.252Z,63.01
2023-05-10T05:02:46.257Z,62.48
2023-05-10T05:05:26.365Z,62.14
2023-05-10T05:07:54.735Z,62.24
2023-05-10T05:10:45.547Z,62.20
2023-05-10T05:13:44.441Z,61.62
2023-05-10T05:16:19.534Z,60.98
2023-05-10T05:18:48.311Z,60.91
2023-05-10T05:21:18.647Z,60.38
2023-05-10T05:24:01.171Z,60.30
2023-05-10T05:26:51.697Z,60.22
2023-05-10T05:29:32.197Z,59.90
2023-05-10T05:32:18.524Z,59.39
2023-05-10T05:34:49.784Z,58.66
2023-05-10T05:37:22.315Z,57.70
2023-05-10T05:40:08.109Z,56.20
2023-05-10T05:43:05.347Z,55.65
2023-05-10T05:45:41.222Z,54.99
2023-05-10T05:48:28.871Z,54.06
2023-05-10T05:50:57.829Z,52.82
2023-05-10T05:53:26.654Z,52.30
2023-05-10T05:56:00.464Z,51.76
2023-05-10T05:58:29.148Z,51.27
2023-05-10T06:01:00.178Z,50.69
2023-05-10T06:03:57.341Z,50.18
2023-05-10T06:06:52.757Z,49.94
2023-05-10T06:09:45.059Z,49.30
2023-05-10T06:12:21.212Z,48.92
2023-05-10T06:15:32.209Z,48.90
2023-05-10T06:18:10.797Z,48.69
2023-05-10T06:20:52.860Z,48.48
2023-05-10T06:23:24.628Z,47.82
2023-05-10T06:26:13.564Z,47.80
2023-05-10T06:28:46.979Z,47.71
2023-05-10T06:31:24.169Z,47.23
2023-05-10T06:34:13.427Z,46.44
2023-05-10T06:36:47.242Z,46.41
2023-05-10T06:39:20.984Z,46.39
2023-05-10T06:41:55.473Z,46.58
2023-05-10T06:45:11.867Z,46.45
2023-05-10T06:48:20.626Z,47.01
2023-05-10T06:51:30.220Z,46.37
2023-05-10T06:54:24.332Z,46.20
2023-05-10T06:57:36.253Z,46.40
2023-05-10T07:00:16.582Z,46.46
2023-05-10T07:03:13.499Z,46.38
2023-05-10T07:05:45.178Z,46.07
2023-05-10T07:08:14.531Z,46.11
2023-05-10T07:11:02.555Z,45.97
2023-05-10T07:13:37.419Z,46.07
2023-05-10T07:16:39.304Z,46.32
2023-05-10T07:19:30.968Z,46.45
2023-05-10T07:21:59.834Z,46.38
2023-05-10T07:24:45.763Z,46.17
2023-05-10T07:27:54.854Z,45.96
2023-05-10T07:30:35.985Z,45.79
2023-05-10T07:33:36.634Z,46.00
2023-05-10T07:36:32.104Z,45.96
2023-05-10T07:39:27.745Z,45.29
2023-05-10T07:42:13.558Z,45.18
2023-05-10T07:44:48.359Z,45.26
2023-05-10T07:47:25.596Z,45.26
2023-05-10T07:50:22.408Z,45.45
2023-05-10T07:53:00.246Z,45.04
2023-05-10T07:55:28.769Z,44.51
2023-05-10T07:58:02.398Z,44.15
2023-05-10T08:00:57.700Z,44.11
2023-05-10T08:03:39.281Z,44.79
2023-05-10T08:06:33.444Z,43.77
2023-05-10T08:09:02.448Z,44.02
2023-05-10T08:12:17.878Z,43.97
2023-05-10T08:14:46.909Z,43.41
2023-05-10T08:17:26.255Z,42.80
2023-05-10T08:19:54.401Z,42.60
2023-05-10T08:22:35.744Z,42.84
2023-05-10T08:25:22.442Z,43.29
2023-05-10T08:27:51.891Z,43.47
2023-05-10T08:30:32.789Z,43.31
2023-05-10T08:33:04.588Z,42.57
2023-05-10T08:35:34.351Z,42.41
2023-05-10T08:38:04.386Z,42.41
2023-05-10T08:40:43.508Z,42.44
2023-05-10T08:43:17.091Z,42.42
2023-05-10T08:46:26.039Z,43.04
2023-05-10T08:48:55.282Z,42.80
2023-05-10T08:52:05.382Z,42.33
2023-05-10T08:54:54.943Z,42.03
2023-05-10T08:57:32.154Z,42.08
2023-05-10T09:00:03.788Z,41.97
2023-05-10T09:02:32.716Z,41.51
2023-05-10T09:05:04.985Z,41.71
2023-05-10T09:07:54.016Z,41.45
2023-05-10T09:10:43.196Z,41.33
2023-05-10T09:13:15.282Z,40.63
2023-05-10T09:15:45.145Z,39.96
2023-05-10T09:18:16.586Z,40.46
2023-05-10T09:21:37.978Z,40.78
2023-05-10T09:24:18.624Z,40.81
2023-05-10T09:27:06.743Z,40.69
2023-05-10T09:29:44.569Z,41.46
2023-05-10T09:32:13.774Z,41.85
2023-05-10T09:35:23.303Z,41.77
2023-05-10T09:37:55.137Z,41.37
2023-05-10T09:40:28.229Z,41.04
2023-05-10T09:43:19.879Z,40.73
2023-05-10T09:45:52.315Z,40.02
2023-05-10T09:48:25.397Z,39.48
2023-05-10T09:51:00.162Z,39.77
2023-05-10T09:53:31.797Z,39.92
2023-05-10T09:56:12.649Z,39.99
2023-05-10T09:59:22.820Z,40.19
2023-05-10T10:01:52.696Z,40.99
2023-05-10T10:04:30.755Z,41.48
2023-05-10T10:07:24.823Z,41.69
2023-05-10T10:10:12.477Z,41.41
2023-05-10T10:12:58.840Z,40.91
2023-05-10T10:15:40.832Z,40.66
2023-05-10T10:18:17.015Z,40.48
2023-05-10T10:20:56.229Z,41.08
2023-05-10T10:23:33.646Z,40.39
2023-05-10T10:26:11.779Z,39.60
2023-05-10T10:29:28.808Z,39.55
2023-05-10T10:32:20.211Z,39.51
2023-05-10T10:35:24.448Z,39.38
2023-05-10T10:37:52.970Z,38.38
2023-05-10T10:40:34.620Z,38.69
2023-05-10T10:43:46.079Z,38.42
2023-05-10T10:46:18.973Z,38.99
2023-05-10T10:49:14.708Z,39.10
2023-05-10T10:52:42.446Z,38.03
2023-05-10T10:55:32.292Z,37.82
2023-05-10T10:58:42.622Z,37.10
2023-05-10T11:01:33.761Z,37.47
2023-05-10T11:04:25.717Z,37.99
2023-05-10T11:07:27.750Z,38.28
2023-05-10T11:10:37.371Z,39.05
2023-05-10T11:13:36.879Z,38.95
2023-05-10T11:16:28.318Z,38.48
2023-05-10T11:19:20.845Z,37.75
2023-05-10T11:21:50.850Z,37.18
2023-05-10T11:24:40.567Z,37.32
2023-05-10T11:28:10.940Z,36.97
2023-05-10T11:30:41.292Z,36.76
2023-05-10T11:33:30.161Z,37.24
2023-05-10T11:36:32.300Z,37.39
2023-05-10T11:39:12.656Z,37.20
2023-05-10T11:41:44.150Z,37.37
2023-05-10T11:44:22.999Z,37.87
2023-05-10T11:47:11.752Z,37.60
2023-05-10T11:49:49.988Z,37.27
2023-05-10T11:52:31.003Z,37.79
2023-05-10T11:55:20.192Z,37.71
2023-05-10T11:58:06.341Z,37.93
2023-05-10T12:00:47.542Z,37.68
2023-05-10T12:03:32.950Z,38.25
2023-05-10T12:06:11.870Z,38.38
2023-05-10T12:08:55.454Z,38.75
2023-05-10T12:11:44.222Z,38.23
2023-05-10T12:14:25.276Z,37.97
2023-05-10T12:17:01.140Z,37.93
2023-05-10T12:19:40.244Z,38.29
2023-05-10T12:22:11.773Z,38.14
2023-05-10T12:24:40.693Z,38.59
2023-05-10T12:27:10.019Z,38.47
2023-05-10T12:29:45.027Z,38.09
2023-05-10T12:32:45.860Z,37.28
2023-05-10T12:35:23.248Z,37.64
2023-05-10T12:38:27.722Z,37.53
2023-05-10T12:41:12.499Z,37.19
2023-05-10T12:43:41.949Z,37.07
2023-05-10T12:46:35.777Z,37.27
2023-05-10T12:49:24.873Z,37.11
2023-05-10T12:52:13.509Z,37.49
2023-05-10T12:54:50.926Z,37.42
2023-05-10T12:57:19.311Z,37.52
2023-05-10T12:59:51.006Z,37.54
2023-05-10T13:02:19.506Z,37.64
2023-05-10T13:04:51.003Z,37.47
2023-05-10T13:07:19.750Z,37.76
2023-05-10T13:09:50.893Z,37.47
2023-05-10T13:12:21.211Z,37.50
2023-05-10T13:14:50.218Z,37.15
2023-05-10T13:17:28.038Z,36.94
2023-05-10T13:20:06.992Z,36.96
2023-05-10T13:22:40.103Z,36.98
2023-05-10T13:25:10.504Z,36.48
2023-05-10T13:27:40.413Z,36.96
2023-05-10T13:30:10.678Z,36.21
2023-05-10T13:32:46.918Z,36.59
2023-05-10T13:35:19.787Z,37.03
2023-05-10T13:37:57.877Z,37.16
2023-05-10T13:40:26.508Z,37.08
2023-05-10T13:42:55.352Z,36.80
2023-05-10T13:45:23.816Z,36.65
2023-05-10T13:47:54.830Z,35.87
2023-05-10T13:50:32.716Z,36.20
2023-05-10T13:53:10.775Z,36.65
2023-05-10T13:55:42.305Z,37.11
2023-05-10T13:58:11.926Z,36.85
2023-05-10T14:00:40.462Z,37.28
2023-05-10T14:03:12.300Z,37.27
2023-05-10T14:05:44.265Z,36.86
2023-05-10T14:08:14.414Z,36.97
2023-05-10T14:10:43.139Z,37.01
2023-05-10T14:13:11.578Z,37.10
2023-05-10T14:15:49.303Z,37.07
2023-05-10T14:18:17.956Z,37.14
2023-05-10T14:20:58.426Z,37.42
2023-05-10T14:23:35.611Z,37.11
2023-05-10T14:26:04.666Z,36.11
2023-05-10T14:28:36.583Z,36.05
2023-05-10T14:31:06.778Z,36.54
2023-05-10T14:33:35.116Z,36.52
2023-05-10T14:36:04.746Z,36.40
2023-05-10T14:38:34.028Z,36.67
2023-05-10T14:41:03.151Z,37.00
2023-05-10T14:43:31.660Z,37.02
2023-05-10T14:46:00.800Z,37.08
2023-05-10T14:48:33.607Z,37.39
2023-05-10T14:51:02.249Z,37.31
2023-05-10T14:53:38.353Z,37.58
2023-05-10T14:56:08.394Z,37.49
2023-05-10T14:58:36.822Z,37.86
2023-05-10T15:01:08.751Z,37.74
2023-05-10T15:03:40.867Z,37.07
2023-05-10T15:06:10.468Z,36.60
2023-05-10T15:08:42.318Z,36.87
2023-05-10T15:11:17.480Z,36.93
2023-05-10T15:13:45.782Z,36.84
2023-05-10T15:16:14.346Z,36.86
2023-05-10T15:18:42.766Z,36.58
2023-05-10T15:21:11.682Z,36.46
2023-05-10T15:23:39.885Z,36.40
2023-05-10T15:26:09.029Z,36.41
2023-05-10T15:28:48.086Z,36.72
2023-05-10T15:31:38.645Z,36.64
2023-05-10T15:34:09.897Z,36.32
2023-05-10T15:36:39.169Z,36.29
2023-05-10T15:39:08.012Z,36.58
2023-05-10T15:41:46.348Z,37.07
2023-05-10T15:44:15.365Z,36.77
2023-05-10T15:46:44.319Z,36.75
2023-05-10T15:49:13.366Z,36.90
2023-05-10T15:51:42.683Z,37.07
2023-05-10T15:54:12.062Z,37.07
2023-05-10T15:56:41.752Z,37.39
2023-05-10T15:59:12.003Z,37.43
2023-05-10T16:01:50.181Z,37.37
2023-05-10T16:04:44.958Z,37.70
2023-05-10T16:07:13.398Z,37.71
2023-05-10T16:09:53.207Z,37.82
2023-05-10T16:12:25.575Z,38.04
2023-05-10T16:14:54.070Z,37.66
2023-05-10T16:17:23.133Z,37.80
2023-05-10T16:19:54.819Z,37.80
2023-05-10T16:22:32.691Z,37.78
2023-05-10T16:25:01.149Z,37.95
2023-05-10T16:27:30.636Z,37.87
2023-05-10T16:30:08.942Z,37.80
2023-05-10T16:32:45.076Z,37.71
2023-05-10T16:35:17.776Z,37.88
2023-05-10T16:37:49.301Z,37.79
2023-05-10T16:40:20.959Z,38.16
2023-05-10T16:42:49.626Z,38.26
2023-05-10T16:45:21.186Z,38.13
2023-05-10T16:47:49.704Z,38.27
2023-05-10T16:50:18.880Z,38.55
2023-05-10T16:52:49.954Z,38.32
2023-05-10T16:55:19.715Z,38.35
2023-05-10T16:58:08.751Z,38.27
2023-05-10T17:00:40.943Z,38.24
2023-05-10T17:03:18.018Z,38.15
2023-05-10T17:05:47.222Z,38.35
2023-05-10T17:08:33.151Z,38.28
2023-05-10T17:11:04.980Z,38.47
2023-05-10T17:13:33.509Z,38.39
2023-05-10T17:16:05.110Z,38.84
2023-05-10T17:18:34.027Z,39.18
2023-05-10T17:21:02.729Z,38.95
2023-05-10T17:23:39.644Z,38.88
2023-05-10T17:26:09.189Z,39.21
2023-05-10T17:29:01.199Z,38.94
2023-05-10T17:31:34.398Z,38.72
2023-05-10T17:34:06.877Z,38.94
2023-05-10T17:36:36.779Z,39.13
2023-05-10T17:39:05.330Z,39.28
2023-05-10T17:41:33.767Z,39.22
2023-05-10T17:44:05.758Z,39.38
2023-05-10T17:46:35.708Z,39.55
2023-05-10T17:49:06.735Z,39.76
2023-05-10T17:51:51.658Z,39.53
2023-05-10T17:54:40.761Z,39.80
2023-05-10T17:57:09.204Z,40.02
2023-05-10T17:59:38.877Z,40.27
2023-05-10T18:02:16.918Z,40.46
2023-05-10T18:05:08.830Z,40.58
2023-05-10T18:07:37.400Z,40.88
2023-05-10T18:10:20.056Z,41.16
2023-05-10T18:12:50.755Z,41.53
2023-05-10T18:15:22.332Z,41.83
2023-05-10T18:17:50.950Z,42.09
2023-05-10T18:20:40.410Z,42.34
2023-05-10T18:23:13.244Z,42.51
2023-05-10T18:26:14.894Z,42.87
2023-05-10T18:28:43.460Z,43.40
2023-05-10T18:31:12.955Z,43.62
2023-05-10T18:33:42.687Z,44.00
2023-05-10T18:36:12.044Z,44.08
2023-05-10T18:38:47.661Z,44.44
2023-05-10T18:41:19.291Z,44.61
2023-05-10T18:43:53.496Z,44.80
2023-05-10T18:46:22.220Z,45.11
2023-05-10T18:48:56.130Z,45.06
2023-05-10T18:51:33.135Z,45.44
2023-05-10T18:54:08.029Z,45.61
2023-05-10T18:56:59.047Z,45.41
2023-05-10T18:59:34.486Z,45.79
2023-05-10T19:02:04.995Z,45.92
2023-05-10T19:04:42.756Z,45.96
2023-05-10T19:07:14.518Z,46.40
2023-05-10T19:09:51.703Z,46.60
2023-05-10T19:12:21.654Z,46.55
2023-05-10T19:14:51.091Z,46.82
2023-05-10T19:17:31.919Z,47.17
2023-05-10T19:20:03.843Z,47.48
2023-05-10T19:23:02.080Z,47.45
2023-05-10T19:25:39.756Z,47.84
2023-05-10T19:28:11.684Z,47.96
2023-05-10T19:30:41.883Z,48.07
2023-05-10T19:33:18.553Z,48.11
2023-05-10T19:35:59.623Z,48.07
2023-05-10T19:38:28.105Z,48.48
2023-05-10T19:41:06.841Z,48.51
2023-05-10T19:43:37.152Z,48.51
2023-05-10T19:46:06.094Z,48.68
2023-05-10T19:48:37.667Z,48.50
2023-05-10T19:51:09.339Z,48.93
2023-05-10T19:53:40.339Z,48.74
2023-05-10T19:56:09.230Z,48.73
2023-05-10T19:58:40.892Z,48.83
2023-05-10T20:01:09.642Z,48.93
2023-05-10T20:03:38.321Z,49.05
2023-05-10T20:06:09.726Z,49.16
2023-05-10T20:11:26.020Z,49.40
2023-05-10T20:13:57.299Z,49.63
2023-05-10T20:16:34.928Z,49.89
2023-05-10T20:19:03.466Z,50.19
2023-05-10T20:21:37.343Z,50.56
2023-05-10T20:24:07.924Z,50.61
2023-05-10T20:26:39.228Z,50.76
2023-05-10T20:29:07.945Z,51.24
2023-05-10T20:31:48.516Z,51.18
2023-05-10T20:34:40.343Z,51.13
2023-05-10T20:37:11.291Z,51.47
2023-05-10T20:39:47.439Z,51.80
2023-05-10T20:42:18.316Z,52.00
2023-05-10T20:44:47.474Z,51.84
2023-05-10T20:47:16.616Z,52.35
2023-05-10T20:49:47.784Z,52.53
2023-05-10T20:52:19.719Z,52.48
2023-05-10T20:54:48.332Z,52.69
2023-05-10T20:57:17.104Z,53.07
2023-05-10T20:59:45.391Z,53.26
2023-05-10T21:02:21.328Z,53.44
2023-05-10T21:04:49.820Z,53.56
2023-05-10T21:07:34.655Z,53.69
2023-05-10T21:10:03.818Z,53.91
2023-05-10T21:12:38.127Z,53.90
2023-05-10T21:15:25.796Z,54.23
2023-05-10T21:17:54.855Z,54.37
2023-05-10T21:20:24.098Z,54.68
2023-05-10T21:22:52.582Z,55.16
2023-05-10T21:25:23.261Z,55.78
2023-05-10T21:27:54.648Z,55.68
2023-05-10T21:30:23.499Z,55.64
2023-05-10T21:32:53.989Z,55.88
2023-05-10T21:35:25.623Z,56.07
2023-05-10T21:37:54.230Z,56.23
2023-05-10T21:40:25.778Z,56.00
2023-05-10T21:42:56.738Z,56.14
2023-05-10T21:45:29.316Z,56.75
2023-05-10T21:48:06.683Z,56.51
2023-05-10T21:50:38.183Z,56.81
2023-05-10T21:53:21.219Z,56.93
2023-05-10T21:55:55.361Z,56.95
2023-05-10T21:58:49.357Z,57.61
2023-05-10T22:01:30.553Z,57.58
2023-05-10T22:03:59.056Z,57.71
2023-05-10T22:06:27.667Z,57.74
2023-05-10T22:08:56.371Z,57.98
2023-05-10T22:11:27.580Z,58.24
2023-05-10T22:14:09.345Z,58.67
2023-05-10T22:16:38.413Z,58.49
2023-05-10T22:19:06.782Z,58.81
2023-05-10T22:22:12.419Z,58.90
2023-05-10T22:24:40.975Z,58.62
2023-05-10T22:27:38.945Z,58.91
2023-05-10T22:30:26.103Z,58.83
2023-05-10T22:33:17.917Z,59.12
2023-05-10T22:36:29.551Z,59.42
2023-05-10T22:39:33.665Z,59.42
2023-05-10T22:42:02.772Z,59.73
2023-05-10T22:44:34.527Z,60.03
2023-05-10T22:47:13.472Z,60.29
2023-05-10T22:50:05.458Z,59.75
2023-05-10T22:52:54.090Z,59.81
2023-05-10T22:55:23.286Z,59.68
2023-05-10T22:57:52.779Z,60.06
2023-05-10T23:00:25.779Z,60.03
2023-05-10T23:03:15.298Z,59.82
2023-05-10T23:05:44.328Z,59.79
2023-05-10T23:08:15.381Z,59.69
2023-05-10T23:10:47.454Z,60.39
2023-05-10T23:13:50.690Z,60.18
2023-05-10T23:16:30.736Z,60.39
2023-05-10T23:19:04.612Z,60.66
2023-05-10T23:21:33.884Z,60.84
2023-05-10T23:24:09.955Z,60.95
2023-05-10T23:26:46.666Z,60.81
2023-05-10T23:30:00.753Z,60.98
2023-05-10T23:32:33.227Z,60.87
2023-05-10T23:35:05.165Z,60.71
2023-05-10T23:38:14.096Z,60.98
2023-05-10T23:40:51.709Z,60.77
2023-05-10T23:43:49.397Z,60.80
2023-05-10T23:46:17.802Z,60.30
2023-05-10T23:48:47.225Z,60.56
2023-05-10T23:52:27.652Z,60.41
2023-05-10T23:54:58.810Z,60.60
2023-05-10T23:57:41.993Z,60.61
